Time;durP1;ratioP1;P1;durP2;ratioP2;P2;SDS_P1;SDS_P2;PMS_P1;PMS_P2;Temp;Humidity;BMP_temperature;BMP_pressure;BME280_temperature;BME280_humidity;BME280_pressure;Samples;Min_cycle;Max_cycle;Signal;HPM_P1;HPM_P2
2022/01/14 00:01:41;;;;;;;100.75;26.27;;;5.20;99.90;;;;;;5077830;28;20052;-74
2022/01/14 00:04:09;;;;;;;102.03;27.30;;;5.20;99.90;;;;;;5080608;28;20577;-75
2022/01/14 00:06:37;;;;;;;88.60;24.17;;;5.20;99.90;;;;;;5084484;28;20036;-75
2022/01/14 00:09:08;;;;;;;82.88;24.45;;;5.20;99.90;;;;;;5079412;28;20056;-74
2022/01/14 00:11:45;;;;;;;74.43;21.33;;;5.20;99.90;;;;;;5079528;28;20081;-74
2022/01/14 00:16:44;;;;;;;67.88;21.05;;;5.40;99.90;;;;;;5085971;28;20198;-73
2022/01/14 00:19:10;;;;;;;80.00;23.13;;;5.30;99.90;;;;;;5083978;28;20610;-73
2022/01/14 00:21:38;;;;;;;69.68;21.92;;;5.30;99.90;;;;;;5079039;28;20544;-73
2022/01/14 00:24:12;;;;;;;60.03;21.92;;;5.30;99.90;;;;;;5096577;28;20129;-74
2022/01/14 00:32:13;;;;;;;52.28;19.33;;;5.40;99.90;;;;;;5097781;28;20394;-74
2022/01/14 00:34:38;;;;;;;49.10;16.30;;;5.40;99.90;;;;;;5089252;28;20629;-73
2022/01/14 00:37:04;;;;;;;51.20;18.42;;;5.50;99.90;;;;;;5082479;28;20045;-73
2022/01/14 00:39:30;;;;;;;54.83;18.30;;;5.40;99.90;;;;;;5084634;28;20043;-72
2022/01/14 00:41:56;;;;;;;53.13;18.65;;;5.40;99.90;;;;;;5082543;28;20043;-73
2022/01/14 00:44:22;;;;;;;50.30;19.00;;;5.50;99.90;;;;;;5081498;28;20052;-73
2022/01/14 00:46:49;;;;;;;50.70;17.27;;;5.50;99.90;;;;;;5090665;28;20048;-73
2022/01/14 00:49:16;;;;;;;47.58;18.27;;;5.50;99.90;;;;;;5093100;28;20044;-73
2022/01/14 00:51:41;;;;;;;44.28;17.98;;;5.50;99.90;;;;;;5081312;28;20093;-74
2022/01/14 00:54:08;;;;;;;49.28;19.02;;;5.50;99.90;;;;;;5081607;28;20124;-72
2022/01/14 00:59:16;;;;;;;40.80;17.30;;;5.60;99.90;;;;;;5082208;28;20504;-73
2022/01/14 01:01:52;;;;;;;43.58;16.98;;;5.60;99.90;;;;;;5080835;28;20040;-73
2022/01/14 01:04:25;;;;;;;38.45;14.93;;;5.60;99.90;;;;;;5088966;28;20555;-74
2022/01/14 01:06:53;;;;;;;44.28;16.13;;;5.60;99.90;;;;;;5082003;28;20119;-73
2022/01/14 01:09:21;;;;;;;41.63;15.60;;;5.70;99.90;;;;;;5080827;28;20142;-73
2022/01/14 01:11:52;;;;;;;42.03;17.73;;;5.60;99.90;;;;;;5081878;28;20044;-73
2022/01/14 01:14:25;;;;;;;39.28;16.55;;;5.60;99.90;;;;;;5095727;28;20091;-71
2022/01/14 01:16:51;;;;;;;39.28;15.77;;;5.60;99.90;;;;;;5090249;28;20040;-72
2022/01/14 01:19:17;;;;;;;38.72;16.33;;;5.60;99.90;;;;;;5086665;28;20475;-73
2022/01/14 01:21:43;;;;;;;35.95;16.08;;;5.60;99.90;;;;;;5082062;28;20075;-73
2022/01/14 01:24:10;;;;;;;39.67;16.35;;;5.60;99.90;;;;;;5081135;28;20049;-73
2022/01/14 01:26:39;;;;;;;33.47;14.98;;;5.50;99.90;;;;;;5082250;28;20051;-70
2022/01/14 01:31:41;;;;;;;42.15;16.65;;;5.60;99.90;;;;;;5087227;28;20051;-74
2022/01/14 01:34:18;;;;;;;37.03;15.70;;;5.60;99.90;;;;;;5083763;27;20040;-72
2022/01/14 01:36:49;;;;;;;44.08;17.75;;;5.60;99.90;;;;;;5081113;28;20048;-73
2022/01/14 01:39:17;;;;;;;45.90;17.73;;;5.60;99.90;;;;;;5095479;28;20040;-74
2022/01/14 01:41:50;;;;;;;33.28;13.45;;;5.60;99.90;;;;;;5082907;28;20040;-72
2022/01/14 01:44:17;;;;;;;46.65;17.13;;;5.60;99.90;;;;;;5080704;28;20044;-73
2022/01/14 01:46:46;;;;;;;37.78;17.13;;;5.60;99.90;;;;;;5088413;28;20043;-72
2022/01/14 01:49:14;;;;;;;46.25;18.30;;;5.60;99.90;;;;;;5088205;28;20052;-74
2022/01/14 01:51:41;;;;;;;50.38;17.15;;;5.60;99.90;;;;;;5080283;28;20617;-74
2022/01/14 01:54:07;;;;;;;38.65;16.33;;;5.60;99.90;;;;;;5081073;28;20076;-72
2022/01/14 01:56:32;;;;;;;41.63;16.17;;;5.60;99.90;;;;;;5087860;28;20048;-75
2022/01/14 01:58:58;;;;;;;51.00;18.75;;;5.60;99.90;;;;;;5080756;28;20066;-73
2022/01/14 02:01:25;;;;;;;42.45;17.00;;;5.60;99.90;;;;;;5080416;28;20048;-75
2022/01/14 02:03:53;;;;;;;37.70;16.05;;;5.70;99.90;;;;;;5080030;28;20037;-75
2022/01/14 02:06:20;;;;;;;42.35;16.05;;;5.60;99.90;;;;;;5080698;28;20062;-75
2022/01/14 02:08:46;;;;;;;44.85;17.90;;;5.60;99.90;;;;;;5079318;28;20041;-75
2022/01/14 02:11:12;;;;;;;42.30;18.17;;;5.60;99.90;;;;;;5080233;28;20603;-75
2022/01/14 02:13:38;;;;;;;45.85;17.55;;;5.60;99.90;;;;;;5086777;28;20035;-74
2022/01/14 02:23:51;;;;;;;40.78;16.95;;;5.60;99.90;;;;;;5080304;28;20044;-74
2022/01/14 02:26:19;;;;;;;40.58;17.83;;;5.60;99.90;;;;;;5078063;28;20128;-74
2022/01/14 02:28:47;;;;;;;41.10;18.00;;;5.70;99.90;;;;;;5078953;28;20040;-75
2022/01/14 02:31:13;;;;;;;42.92;17.85;;;5.70;99.90;;;;;;5090210;28;20373;-74
2022/01/14 02:33:39;;;;;;;45.38;18.05;;;5.60;99.90;;;;;;5079663;28;20072;-75
2022/01/14 02:36:05;;;;;;;45.08;18.08;;;5.60;99.90;;;;;;5081959;28;20036;-73
2022/01/14 02:38:32;;;;;;;43.00;18.13;;;5.60;99.90;;;;;;5079789;28;20087;-74
2022/01/14 02:40:58;;;;;;;44.95;18.45;;;5.60;99.90;;;;;;5061754;28;20127;-74
2022/01/14 02:43:25;;;;;;;40.78;16.35;;;5.70;99.90;;;;;;5078909;28;20044;-73
2022/01/14 02:45:53;;;;;;;48.80;20.40;;;5.60;99.90;;;;;;5079734;28;20033;-72
2022/01/14 02:48:23;;;;;;;42.60;19.25;;;5.60;99.90;;;;;;5078304;28;20050;-75
2022/01/14 02:51:09;;;;;;;43.88;18.55;;;5.70;99.90;;;;;;5077784;28;20475;-74
2022/01/14 02:56:27;;;;;;;50.10;18.27;;;5.60;99.90;;;;;;5098563;28;20040;-74
2022/01/14 02:58:55;;;;;;;46.03;17.80;;;5.60;99.90;;;;;;5085000;28;20045;-75
2022/01/14 03:01:24;;;;;;;42.58;17.00;;;5.60;99.90;;;;;;5079062;28;20052;-75
2022/01/14 03:03:54;;;;;;;43.85;19.30;;;5.70;99.90;;;;;;5078833;28;20076;-74
2022/01/14 03:06:20;;;;;;;34.58;16.67;;;5.70;99.90;;;;;;5079565;28;20108;-72
2022/01/14 03:08:46;;;;;;;42.50;17.40;;;5.70;99.90;;;;;;5078528;28;20080;-75
2022/01/14 03:11:22;;;;;;;44.05;18.77;;;5.70;99.90;;;;;;5079486;28;20473;-76
2022/01/14 03:13:48;;;;;;;44.35;18.98;;;5.70;99.90;;;;;;5077568;28;20051;-76
2022/01/14 03:16:19;;;;;;;43.72;19.77;;;5.70;99.90;;;;;;5078108;28;20088;-74
2022/01/14 03:18:49;;;;;;;41.80;18.38;;;5.70;99.90;;;;;;5078759;28;20049;-74
2022/01/14 03:21:17;;;;;;;45.10;18.63;;;5.80;99.90;;;;;;5078710;28;20131;-76
2022/01/14 03:23:48;;;;;;;51.30;20.52;;;5.80;99.90;;;;;;5093038;28;20122;-75
2022/01/14 03:26:19;;;;;;;53.28;21.15;;;5.70;99.90;;;;;;5080609;28;20049;-75
2022/01/14 03:28:46;;;;;;;51.10;22.42;;;5.20;99.90;;;;;;5079287;28;20067;-75
2022/01/14 03:31:12;;;;;;;53.78;20.50;;;5.70;99.90;;;;;;5078615;28;20043;-74
2022/01/14 03:33:38;;;;;;;48.88;20.67;;;5.70;99.90;;;;;;5101460;28;20434;-74
2022/01/14 03:36:04;;;;;;;50.63;19.60;;;5.70;99.90;;;;;;5079021;28;20472;-74
2022/01/14 03:38:31;;;;;;;52.47;19.90;;;5.70;99.90;;;;;;5086212;28;20471;-74
2022/01/14 03:40:57;;;;;;;45.25;18.80;;;5.70;99.90;;;;;;5089817;28;20098;-74
2022/01/14 03:43:22;;;;;;;49.25;19.33;;;5.70;99.90;;;;;;5078033;28;20048;-75
2022/01/14 03:45:50;;;;;;;51.00;20.25;;;5.70;99.90;;;;;;5086997;28;20039;-75
2022/01/14 03:48:19;;;;;;;48.88;21.33;;;5.70;99.90;;;;;;5096965;28;20105;-74
2022/01/14 03:50:45;;;;;;;48.90;20.17;;;5.60;99.90;;;;;;5079028;28;20060;-74
2022/01/14 03:53:12;;;;;;;49.92;20.23;;;5.60;99.90;;;;;;5078601;28;20044;-74
2022/01/14 03:55:39;;;;;;;48.53;19.40;;;5.60;99.90;;;;;;5079029;28;20044;-74
2022/01/14 03:58:06;;;;;;;50.03;18.95;;;5.60;99.90;;;;;;5079049;28;20044;-74
2022/01/14 04:00:32;;;;;;;51.70;21.58;;;5.70;99.90;;;;;;5077875;28;20048;-74
2022/01/14 04:02:58;;;;;;;51.63;19.83;;;5.60;99.90;;;;;;5080870;28;20075;-75
2022/01/14 04:05:24;;;;;;;48.50;20.23;;;5.60;99.90;;;;;;5080726;28;20044;-75
2022/01/14 04:07:50;;;;;;;49.55;19.83;;;5.60;99.90;;;;;;5081604;28;20044;-75
2022/01/14 04:10:17;;;;;;;53.38;20.27;;;5.60;99.90;;;;;;5082451;28;20052;-76
2022/01/14 04:12:50;;;;;;;42.63;19.13;;;5.60;99.90;;;;;;5084471;28;20044;-75
2022/01/14 04:18:02;;;;;;;50.80;20.17;;;5.60;99.90;;;;;;5082015;28;20060;-75
2022/01/14 04:20:28;;;;;;;44.58;19.13;;;5.60;99.90;;;;;;5098167;28;20052;-74
2022/01/14 04:22:54;;;;;;;54.90;20.33;;;5.60;99.90;;;;;;5087252;28;20051;-75
2022/01/14 04:25:21;;;;;;;54.35;20.35;;;5.60;99.90;;;;;;5082290;28;20492;-74
2022/01/14 04:27:47;;;;;;;46.60;18.67;;;5.60;99.90;;;;;;5080907;28;20047;-74
2022/01/14 04:30:13;;;;;;;53.03;18.92;;;5.60;99.90;;;;;;5084936;28;20044;-77
2022/01/14 04:32:39;;;;;;;45.20;18.50;;;5.60;99.90;;;;;;5096289;28;20098;-76
2022/01/14 04:35:05;;;;;;;44.25;20.20;;;5.60;99.90;;;;;;5090870;28;20032;-74
2022/01/14 04:37:31;;;;;;;46.10;20.77;;;5.60;99.90;;;;;;5089368;28;20092;-74
2022/01/14 04:39:56;;;;;;;46.45;18.55;;;5.60;99.90;;;;;;5100536;28;20134;-74
2022/01/14 04:42:23;;;;;;;47.70;20.35;;;5.60;99.90;;;;;;5081915;28;20044;-75
2022/01/14 04:44:53;;;;;;;43.88;19.88;;;5.70;99.90;;;;;;5096532;28;20410;-74
2022/01/14 04:47:30;;;;;;;46.58;19.88;;;5.60;99.90;;;;;;5085543;28;20483;-74
2022/01/14 04:49:57;;;;;;;44.75;19.05;;;5.60;99.90;;;;;;5081959;28;20479;-75
2022/01/14 04:52:23;;;;;;;47.40;19.83;;;5.60;99.90;;;;;;5081595;28;20048;-75
2022/01/14 04:54:49;;;;;;;49.72;19.17;;;5.60;99.90;;;;;;5094476;28;20075;-74
2022/01/14 04:57:21;;;;;;;50.90;20.00;;;5.60;99.90;;;;;;5086030;28;20048;-76
2022/01/14 04:59:48;;;;;;;43.15;18.35;;;5.60;99.90;;;;;;5081632;28;20116;-76
2022/01/14 05:02:14;;;;;;;50.88;20.13;;;5.60;99.90;;;;;;5085634;28;20044;-75
2022/01/14 05:04:41;;;;;;;49.83;19.88;;;5.60;99.90;;;;;;5090369;28;20048;-74
2022/01/14 05:07:11;;;;;;;50.65;19.42;;;5.60;99.90;;;;;;5082134;28;20044;-75
2022/01/14 05:09:41;;;;;;;52.20;20.88;;;5.50;99.90;;;;;;5087888;28;20071;-74
2022/01/14 05:12:09;;;;;;;48.30;20.20;;;5.50;99.90;;;;;;5102346;28;20048;-75
2022/01/14 05:14:36;;;;;;;55.00;18.63;;;5.50;99.90;;;;;;5084749;28;20411;-74
2022/01/14 05:17:02;;;;;;;49.72;20.50;;;5.50;99.90;;;;;;5081851;28;20096;-74
2022/01/14 05:19:28;;;;;;;47.13;19.20;;;5.50;99.90;;;;;;5088391;28;20487;-74
2022/01/14 05:21:54;;;;;;;51.22;19.90;;;5.50;99.90;;;;;;5080491;28;20055;-74
2022/01/14 05:24:20;;;;;;;45.15;18.17;;;5.50;99.90;;;;;;5081846;28;20041;-74
2022/01/14 05:26:46;;;;;;;45.28;20.20;;;5.50;99.90;;;;;;5079571;28;20044;-74
2022/01/14 05:29:11;;;;;;;43.95;18.80;;;5.50;99.90;;;;;;5089633;28;20040;-75
2022/01/14 05:32:02;;;;;;;45.92;18.27;;;5.50;99.90;;;;;;5094541;28;20103;-72
2022/01/14 05:34:32;;;;;;;48.88;20.55;;;5.40;99.90;;;;;;5095377;28;20388;-73
2022/01/14 05:36:59;;;;;;;46.42;20.60;;;5.50;99.90;;;;;;5081522;28;20044;-74
2022/01/14 05:39:25;;;;;;;49.78;20.95;;;5.50;99.90;;;;;;5080330;28;20041;-73
2022/01/14 05:41:51;;;;;;;48.38;19.92;;;5.50;99.90;;;;;;5081593;28;20051;-74
2022/01/14 05:44:17;;;;;;;49.38;20.40;;;5.50;99.90;;;;;;5079154;28;20047;-74
2022/01/14 05:46:43;;;;;;;54.67;20.63;;;5.40;99.90;;;;;;5081045;28;20051;-75
2022/01/14 05:49:09;;;;;;;36.30;17.30;;;5.50;99.90;;;;;;5088109;28;20135;-72
2022/01/14 05:51:35;;;;;;;43.00;19.15;;;5.50;99.90;;;;;;5080325;28;20055;-76
2022/01/14 05:54:01;;;;;;;46.17;19.08;;;5.40;99.90;;;;;;5081016;28;20071;-74
2022/01/14 05:56:26;;;;;;;45.03;18.48;;;5.40;99.90;;;;;;5093585;28;20045;-73
2022/01/14 05:58:52;;;;;;;44.83;19.02;;;5.40;99.90;;;;;;5079060;28;20535;-73
2022/01/14 06:01:18;;;;;;;47.03;21.42;;;5.40;99.90;;;;;;5087879;28;20043;-74
2022/01/14 06:03:44;;;;;;;43.97;18.48;;;5.40;99.90;;;;;;5085613;28;20522;-73
2022/01/14 06:06:09;;;;;;;41.20;18.17;;;5.40;99.90;;;;;;5080414;28;20120;-73
2022/01/14 06:08:35;;;;;;;34.55;15.32;;;5.40;99.90;;;;;;5079878;28;20158;-71
2022/01/14 06:11:01;;;;;;;47.35;19.98;;;5.30;99.90;;;;;;5080747;28;20040;-73
2022/01/14 06:13:27;;;;;;;40.58;18.42;;;5.40;99.90;;;;;;5086838;28;20052;-73
2022/01/14 06:15:52;;;;;;;44.00;18.23;;;5.40;99.90;;;;;;5092714;28;20064;-73
2022/01/14 06:18:18;;;;;;;45.90;19.25;;;5.40;99.90;;;;;;5079392;28;20040;-74
2022/01/14 06:20:44;;;;;;;39.28;18.15;;;5.30;99.90;;;;;;5079031;28;20053;-72
2022/01/14 06:23:09;;;;;;;39.35;17.40;;;5.30;99.90;;;;;;5080064;28;20052;-78
2022/01/14 06:25:35;;;;;;;45.63;18.63;;;5.30;99.90;;;;;;5078580;28;20048;-77
2022/01/14 06:28:01;;;;;;;46.95;18.15;;;5.30;99.90;;;;;;5084266;28;20073;-76
2022/01/14 06:30:27;;;;;;;46.13;17.52;;;5.30;99.90;;;;;;5080761;28;20047;-75
2022/01/14 06:32:53;;;;;;;40.95;18.77;;;5.30;99.90;;;;;;5083542;28;20141;-73
2022/01/14 06:35:20;;;;;;;41.35;17.30;;;5.30;99.90;;;;;;5082654;28;20044;-75
2022/01/14 06:37:46;;;;;;;41.85;17.52;;;5.30;99.90;;;;;;5096718;28;20128;-75
2022/01/14 06:40:12;;;;;;;39.88;16.75;;;5.30;99.90;;;;;;5078419;28;20072;-74
2022/01/14 06:42:37;;;;;;;42.30;17.85;;;5.30;99.90;;;;;;5092335;28;20094;-75
2022/01/14 06:45:05;;;;;;;36.13;16.80;;;5.30;99.90;;;;;;5079972;28;20119;-74
2022/01/14 06:47:31;;;;;;;33.95;15.40;;;5.30;99.90;;;;;;5077389;28;20044;-76
2022/01/14 06:49:57;;;;;;;42.95;18.67;;;5.30;99.90;;;;;;5089438;28;20079;-76
2022/01/14 06:52:23;;;;;;;39.05;18.45;;;5.30;99.90;;;;;;5090378;28;20044;-74
2022/01/14 06:54:49;;;;;;;35.42;18.83;;;5.30;99.90;;;;;;5091949;28;20089;-74
2022/01/14 06:57:15;;;;;;;38.65;16.85;;;5.30;99.90;;;;;;5089871;28;20105;-74
2022/01/14 06:59:41;;;;;;;40.05;17.73;;;5.30;99.90;;;;;;5081199;28;20044;-74
2022/01/14 07:02:08;;;;;;;39.80;18.20;;;5.30;99.90;;;;;;5083327;28;20177;-74
2022/01/14 07:04:34;;;;;;;39.15;17.63;;;5.30;99.90;;;;;;5078915;28;20053;-74
2022/01/14 07:07:00;;;;;;;41.65;18.77;;;5.30;99.90;;;;;;5099013;28;20048;-75
2022/01/14 07:09:25;;;;;;;40.30;17.67;;;5.30;99.90;;;;;;5099336;28;20051;-75
2022/01/14 07:11:57;;;;;;;38.50;18.27;;;5.30;99.90;;;;;;5098063;28;20056;-75
2022/01/14 07:14:23;;;;;;;39.13;17.40;;;5.30;99.90;;;;;;5082341;28;20074;-74
2022/01/14 07:16:49;;;;;;;40.85;16.60;;;5.30;99.90;;;;;;5079091;28;20041;-75
2022/01/14 07:19:17;;;;;;;38.67;17.67;;;5.20;99.90;;;;;;5078479;28;20048;-75
2022/01/14 07:21:43;;;;;;;39.17;17.73;;;5.30;99.90;;;;;;5078258;28;20060;-75
2022/01/14 07:24:10;;;;;;;37.83;17.60;;;5.30;99.90;;;;;;5078988;28;20060;-74
2022/01/14 07:26:36;;;;;;;36.53;17.05;;;5.30;99.90;;;;;;5078714;28;20049;-74
2022/01/14 07:29:02;;;;;;;40.20;17.58;;;5.30;99.90;;;;;;5079141;28;20060;-75
2022/01/14 07:31:28;;;;;;;38.05;17.05;;;5.30;99.90;;;;;;5082135;28;20047;-75
2022/01/14 07:33:53;;;;;;;36.75;17.15;;;5.30;99.90;;;;;;5082888;28;20055;-76
2022/01/14 07:36:19;;;;;;;36.72;18.23;;;5.30;99.90;;;;;;5090157;28;20063;-75
2022/01/14 07:38:45;;;;;;;41.13;17.17;;;5.30;99.90;;;;;;5078289;28;20185;-76
2022/01/14 07:41:11;;;;;;;38.85;17.65;;;5.40;99.90;;;;;;5079242;28;20048;-75
2022/01/14 07:43:36;;;;;;;39.80;17.85;;;5.30;99.90;;;;;;5078321;28;20083;-75
2022/01/14 07:46:04;;;;;;;39.75;17.88;;;5.30;99.90;;;;;;5079218;28;20051;-75
2022/01/14 07:48:29;;;;;;;43.00;16.92;;;5.30;99.90;;;;;;5078226;28;20056;-75
2022/01/14 07:50:55;;;;;;;41.63;17.83;;;5.30;99.90;;;;;;5078090;28;20101;-75
2022/01/14 07:53:21;;;;;;;39.25;17.23;;;5.30;99.90;;;;;;5077191;28;20063;-76
2022/01/14 07:55:47;;;;;;;34.50;17.80;;;5.40;99.90;;;;;;5096945;28;20040;-77
2022/01/14 07:58:14;;;;;;;39.50;16.23;;;5.30;99.90;;;;;;5078944;28;20048;-74
2022/01/14 08:00:41;;;;;;;37.33;16.80;;;5.40;99.90;;;;;;5080112;28;20063;-77
2022/01/14 08:03:07;;;;;;;37.20;15.55;;;5.40;99.90;;;;;;5083666;28;20045;-74
2022/01/14 08:05:33;;;;;;;35.67;17.20;;;5.40;99.90;;;;;;5078561;28;20048;-75
2022/01/14 08:08:03;;;;;;;32.45;15.82;;;5.40;99.90;;;;;;5093313;28;20044;-76
2022/01/14 08:10:30;;;;;;;34.95;17.52;;;5.40;99.90;;;;;;5076895;28;20123;-75
2022/01/14 08:12:56;;;;;;;34.25;15.63;;;5.40;99.90;;;;;;5078020;28;20041;-75
2022/01/14 08:15:23;;;;;;;32.13;16.00;;;5.40;99.90;;;;;;5078789;28;20045;-76
2022/01/14 08:17:49;;;;;;;36.05;15.18;;;5.40;99.90;;;;;;5077426;28;20053;-76
2022/01/14 08:20:15;;;;;;;36.13;15.95;;;5.40;99.90;;;;;;5075808;28;20067;-76
2022/01/14 08:22:40;;;;;;;34.80;16.17;;;5.40;99.90;;;;;;5082479;28;20036;-76
2022/01/14 08:25:06;;;;;;;30.73;14.35;;;5.50;99.90;;;;;;5098918;28;20043;-76
2022/01/14 08:27:32;;;;;;;33.70;14.60;;;5.50;99.90;;;;;;5089692;28;20518;-77
2022/01/14 08:29:58;;;;;;;33.88;15.80;;;5.50;99.90;;;;;;5076893;28;20044;-77
2022/01/14 08:32:24;;;;;;;29.85;14.98;;;5.50;99.90;;;;;;5083497;28;20168;-74
2022/01/14 08:34:50;;;;;;;34.33;15.20;;;5.50;99.90;;;;;;5097665;28;20122;-78
2022/01/14 08:37:16;;;;;;;27.33;14.15;;;5.50;99.90;;;;;;5078345;28;20051;-79
2022/01/14 08:39:42;;;;;;;31.45;14.50;;;5.60;99.90;;;;;;5088736;28;20032;-79
2022/01/14 08:42:09;;;;;;;36.17;14.23;;;5.50;99.90;;;;;;5079919;28;20076;-78
2022/01/14 08:44:38;;;;;;;34.80;15.85;;;5.60;99.90;;;;;;5085649;28;20040;-76
2022/01/14 08:47:09;;;;;;;34.17;15.57;;;5.60;99.90;;;;;;5081666;28;20098;-76
2022/01/14 08:49:40;;;;;;;38.78;15.20;;;5.60;99.90;;;;;;5092899;28;20093;-75
2022/01/14 08:52:07;;;;;;;29.92;13.38;;;5.80;99.90;;;;;;5088360;28;20052;-75
2022/01/14 08:54:33;;;;;;;30.25;15.20;;;5.60;99.90;;;;;;5081232;28;20041;-77
2022/01/14 08:56:59;;;;;;;31.83;14.05;;;5.60;99.90;;;;;;5093129;28;20051;-78
2022/01/14 08:59:25;;;;;;;30.33;14.43;;;5.70;99.90;;;;;;5095954;28;20044;-78
2022/01/14 09:01:50;;;;;;;28.95;13.40;;;5.70;99.90;;;;;;5083750;28;20459;-77
2022/01/14 09:04:16;;;;;;;34.17;15.05;;;5.70;99.90;;;;;;5079659;28;20044;-77
2022/01/14 09:06:42;;;;;;;27.73;13.75;;;5.80;99.90;;;;;;5062983;28;20040;-77
2022/01/14 09:09:08;;;;;;;33.63;15.02;;;5.70;99.90;;;;;;5092863;28;20044;-76
2022/01/14 09:11:34;;;;;;;32.53;14.57;;;5.70;99.90;;;;;;5102190;28;20032;-74
2022/01/14 09:14:00;;;;;;;28.98;15.23;;;5.80;99.90;;;;;;5098358;28;20044;-75
2022/01/14 09:16:26;;;;;;;31.83;14.13;;;5.80;99.90;;;;;;5101384;28;20100;-76
2022/01/14 09:18:51;;;;;;;26.20;13.98;;;5.80;99.90;;;;;;5093683;28;20366;-75
2022/01/14 09:21:18;;;;;;;31.17;13.27;;;5.80;99.90;;;;;;5080434;28;20098;-75
2022/01/14 09:23:52;;;;;;;27.83;11.98;;;5.80;99.90;;;;;;5079743;28;20044;-76
2022/01/14 09:26:19;;;;;;;25.83;14.10;;;5.90;99.90;;;;;;5098432;28;20039;-77
2022/01/14 09:28:45;;;;;;;32.40;14.93;;;5.90;99.90;;;;;;5089612;28;20117;-75
2022/01/14 09:31:11;;;;;;;38.17;15.80;;;5.90;99.90;;;;;;5080612;28;20044;-76
2022/01/14 09:33:38;;;;;;;24.33;13.52;;;6.00;99.90;;;;;;5096453;28;20083;-76
2022/01/14 09:36:04;;;;;;;32.35;13.93;;;6.00;99.90;;;;;;5064010;28;20060;-75
2022/01/14 09:38:31;;;;;;;28.70;14.00;;;6.00;99.90;;;;;;5087697;28;20036;-77
2022/01/14 09:40:59;;;;;;;29.65;13.63;;;6.00;99.90;;;;;;5084957;28;20048;-75
2022/01/14 09:43:25;;;;;;;30.92;13.13;;;6.00;99.90;;;;;;5086955;28;20073;-76
2022/01/14 09:45:54;;;;;;;27.70;13.75;;;6.10;99.90;;;;;;5083496;28;20048;-79
2022/01/14 09:48:22;;;;;;;25.10;11.77;;;6.10;99.90;;;;;;5082420;28;20149;-77
2022/01/14 09:50:47;;;;;;;29.17;13.95;;;6.10;99.90;;;;;;5088804;28;20054;-74
2022/01/14 09:53:15;;;;;;;26.52;12.27;;;6.20;99.90;;;;;;5083910;28;20100;-75
2022/01/14 09:55:42;;;;;;;26.13;12.50;;;6.10;99.90;;;;;;5080824;28;20052;-74
2022/01/14 09:58:08;;;;;;;22.58;11.68;;;6.20;99.90;;;;;;5085301;28;20067;-73
2022/01/14 10:00:35;;;;;;;23.73;11.27;;;6.30;99.90;;;;;;5089040;28;20043;-75
2022/01/14 10:03:01;;;;;;;25.23;12.05;;;6.30;99.90;;;;;;5086393;28;20048;-74
2022/01/14 10:05:38;;;;;;;24.23;10.75;;;6.30;99.90;;;;;;5089507;28;20048;-75
2022/01/14 10:08:25;;;;;;;24.92;11.65;;;6.40;99.90;;;;;;5091942;28;20052;-78
2022/01/14 10:10:57;;;;;;;28.83;12.25;;;6.40;99.90;;;;;;5080440;28;20048;-76
2022/01/14 10:13:28;;;;;;;24.80;10.75;;;6.40;99.90;;;;;;5092772;28;20059;-76
2022/01/14 10:16:01;;;;;;;23.40;11.30;;;6.50;99.90;;;;;;5098130;28;20052;-77
2022/01/14 10:18:27;;;;;;;24.05;9.77;;;6.50;99.90;;;;;;5099726;28;20040;-75
2022/01/14 10:21:01;;;;;;;19.13;10.25;;;6.50;99.90;;;;;;5081348;28;20067;-76
2022/01/14 10:23:47;;;;;;;21.85;10.23;;;6.50;99.90;;;;;;5100180;28;20075;-73
2022/01/14 10:26:15;;;;;;;25.95;12.23;;;6.50;99.90;;;;;;5099193;28;20051;-74
2022/01/14 10:28:44;;;;;;;19.85;9.40;;;6.50;99.90;;;;;;5100203;28;20086;-73
2022/01/14 10:31:10;;;;;;;18.73;9.77;;;6.50;99.90;;;;;;5100048;28;20127;-73
2022/01/14 10:33:36;;;;;;;22.38;10.25;;;6.60;99.90;;;;;;5098204;28;20051;-73
2022/01/14 10:36:03;;;;;;;20.65;9.35;;;6.60;99.90;;;;;;5100162;28;20102;-75
2022/01/14 10:38:46;;;;;;;19.10;9.30;;;6.60;99.90;;;;;;5118246;28;20061;-73
2022/01/14 10:41:12;;;;;;;20.13;8.10;;;6.60;99.90;;;;;;5119873;28;20082;-76
2022/01/14 10:43:38;;;;;;;20.30;9.27;;;6.70;99.90;;;;;;5118597;28;20043;-73
2022/01/14 10:46:07;;;;;;;19.83;8.90;;;6.70;99.90;;;;;;5119510;28;20044;-74
2022/01/14 10:48:38;;;;;;;19.70;8.57;;;6.80;99.90;;;;;;5118601;28;20054;-73
2022/01/14 10:51:06;;;;;;;16.88;7.75;;;6.70;99.90;;;;;;5118980;28;20207;-74
2022/01/14 10:53:57;;;;;;;16.90;7.97;;;6.80;99.90;;;;;;5118847;28;20451;-72
2022/01/14 10:56:27;;;;;;;19.92;7.95;;;6.70;99.90;;;;;;5118858;28;20044;-73
2022/01/14 10:58:59;;;;;;;14.30;8.70;;;6.70;99.90;;;;;;5119801;28;20055;-74
2022/01/14 11:01:28;;;;;;;21.73;8.13;;;6.70;99.90;;;;;;5118108;28;20104;-73
2022/01/14 11:03:57;;;;;;;19.85;7.95;;;6.70;99.90;;;;;;5118165;28;20051;-76
2022/01/14 11:06:31;;;;;;;16.40;7.68;;;6.80;99.90;;;;;;5109042;28;20039;-74
2022/01/14 11:09:02;;;;;;;17.58;8.50;;;6.80;99.90;;;;;;5097430;28;20094;-77
2022/01/14 11:11:30;;;;;;;19.90;8.48;;;6.80;99.90;;;;;;5099567;28;20043;-76
2022/01/14 11:13:56;;;;;;;18.10;8.00;;;6.80;99.90;;;;;;5085040;28;20446;-73
2022/01/14 11:16:22;;;;;;;19.98;8.07;;;6.70;99.90;;;;;;5085512;28;20067;-77
2022/01/14 11:18:49;;;;;;;18.25;7.93;;;6.80;99.90;;;;;;5092480;28;20076;-77
2022/01/14 11:24:04;;;;;;;19.00;7.55;;;6.20;99.90;;;;;;5090736;28;20056;-74
2022/01/14 11:26:40;;;;;;;17.20;6.68;;;6.80;99.90;;;;;;5090457;28;20043;-76
2022/01/14 11:29:10;;;;;;;15.65;6.57;;;6.70;99.90;;;;;;5091598;28;20210;-77
2022/01/14 11:31:38;;;;;;;15.77;7.20;;;6.80;99.90;;;;;;5081445;28;20051;-77
2022/01/14 11:34:09;;;;;;;14.32;6.45;;;6.70;99.90;;;;;;5086112;28;20048;-77
2022/01/14 11:36:56;;;;;;;17.60;6.82;;;6.80;99.90;;;;;;5066587;28;20850;-78
2022/01/14 11:39:30;;;;;;;;;;;6.70;99.90;;;;;;5097113;28;20077;-75
2022/01/14 11:41:58;;;;;;;18.20;7.28;;;6.70;99.90;;;;;;5099299;28;19924;-77
2022/01/14 11:44:42;;;;;;;12.82;6.65;;;6.70;99.90;;;;;;5090679;28;20521;-77
2022/01/14 11:47:24;;;;;;;17.40;7.20;;;6.70;99.90;;;;;;5081178;28;20048;-77
2022/01/14 11:49:50;;;;;;;11.35;6.20;;;6.70;99.90;;;;;;5082058;28;20056;-76
2022/01/14 11:52:50;;;;;;;15.40;6.55;;;6.70;99.90;;;;;;5076255;28;20052;-77
2022/01/14 11:55:19;;;;;;;17.98;6.32;;;6.80;99.90;;;;;;5088211;28;20036;-76
2022/01/14 11:57:53;;;;;;;17.15;6.80;;;6.70;99.90;;;;;;5098534;28;20051;-77
2022/01/14 12:00:30;;;;;;;19.75;6.10;;;6.80;99.90;;;;;;5092339;28;20075;-73
2022/01/14 12:02:56;;;;;;;16.65;7.30;;;6.80;99.90;;;;;;5077444;28;20056;-77
2022/01/14 12:05:26;;;;;;;19.23;6.55;;;6.80;99.90;;;;;;5106530;28;20039;-76
2022/01/14 12:08:04;;;;;;;14.25;6.13;;;6.90;99.90;;;;;;5080598;28;20056;-74
2022/01/14 12:10:57;;;;;;;15.40;6.53;;;6.90;99.90;;;;;;5078237;28;20449;-77
2022/01/14 12:13:42;;;;;;;16.38;6.75;;;6.90;99.90;;;;;;5081283;28;20051;-77
2022/01/14 12:16:35;;;;;;;13.70;5.25;;;6.90;99.90;;;;;;5081198;28;20047;-74
2022/01/14 12:19:02;;;;;;;14.13;5.60;;;6.90;99.90;;;;;;5084993;28;20108;-75
2022/01/14 12:21:50;;;;;;;12.80;5.57;;;6.90;99.90;;;;;;5097430;28;20055;-74
2022/01/14 12:26:43;;;;;;;17.52;5.15;;;6.90;99.90;;;;;;5090382;28;20049;-76
2022/01/14 12:29:16;;;;;;;14.10;5.70;;;6.90;99.90;;;;;;5093727;28;20055;-76
2022/01/14 12:32:04;;;;;;;11.25;5.07;;;7.00;99.90;;;;;;5102317;28;20506;-74
2022/01/14 12:34:31;;;;;;;9.82;4.63;;;7.00;99.90;;;;;;5095750;28;20048;-73
2022/01/14 12:36:57;;;;;;;13.50;5.85;;;7.00;99.90;;;;;;5100964;28;20058;-73
2022/01/14 12:39:23;;;;;;;9.40;4.00;;;7.00;99.90;;;;;;5086150;28;20096;-74
2022/01/14 12:41:54;;;;;;;10.40;4.90;;;7.00;99.90;;;;;;5100800;28;20048;-73
2022/01/14 12:44:23;;;;;;;11.00;4.50;;;7.00;99.90;;;;;;5081716;28;20383;-73
2022/01/14 12:47:00;;;;;;;10.48;4.88;;;6.90;99.90;;;;;;5081117;28;20048;-77
2022/01/14 12:49:37;;;;;;;9.35;4.60;;;6.90;99.90;;;;;;5094311;28;20040;-75
2022/01/14 12:52:04;;;;;;;13.68;5.40;;;7.00;99.90;;;;;;5079291;28;20048;-76
2022/01/14 12:54:37;;;;;;;12.55;5.22;;;7.00;99.90;;;;;;5091386;28;20040;-76
2022/01/14 12:57:03;;;;;;;9.57;4.57;;;7.00;99.90;;;;;;5098280;28;20145;-77
2022/01/14 12:59:39;;;;;;;15.55;5.60;;;7.00;99.90;;;;;;5096426;28;20056;-77
2022/01/14 13:02:05;;;;;;;13.45;4.80;;;7.00;99.90;;;;;;5088075;28;20045;-73
2022/01/14 13:04:32;;;;;;;9.43;4.68;;;7.00;99.90;;;;;;5078991;28;20069;-75
2022/01/14 13:07:01;;;;;;;15.55;5.72;;;7.00;99.90;;;;;;5082213;28;20051;-74
2022/01/14 13:09:32;;;;;;;11.52;4.70;;;7.00;99.90;;;;;;5080845;28;20088;-77
2022/01/14 13:12:01;;;;;;;9.07;4.50;;;7.00;99.90;;;;;;5084636;28;20044;-76
2022/01/14 13:14:39;;;;;;;17.95;5.85;;;7.00;99.90;;;;;;5095344;28;20048;-75
2022/01/14 13:17:15;;;;;;;14.82;4.80;;;7.00;99.90;;;;;;5084828;28;20052;-73